Souda — SVBH5 — position and weather

sailwx.info

Track history (hours):
 
Tides and Currents Weather Stations Pressure Air Temp Water Temp Dewpoint Dewpoint Depression Visibility Wind Speed Wind Dir Waves Ship Positions

Souda

Last reported at 2016-May-01 20:11 UTC. Time now 2016-May-01 21:13 UTC.
Position N 37°55' E 023°05'.

Length 88 m; draft 5 m.

Type: Tanker. MMSI: 241109000.

Date/timePositionNaut miles runAvg speedWind from/ knotsBaromVisibWave heightAir tempDewpointWater temp
2016-May-01 20:11N 37°55' E 023°05'1 1.9
2016-May-01 19:33N 37°54' E 023°06'1 1.2
2016-May-01 18:33N 37°54' E 023°07'10 9.7
2016-May-01 17:33N 37°52' E 023°19'1010.3
2016-May-01 16:33N 37°50' E 023°32'8 7.7
2016-May-01 15:32N 37°57' E 023°35'0 0.0
2016-May-01 14:32N 37°57' E 023°35'0 0.0
2016-May-01 13:32N 37°57' E 023°35'0 0.0
2016-May-01 12:32N 37°57' E 023°35'0 0.0
2016-May-01 11:32N 37°57' E 023°35'0 0.0
2016-May-01 10:32N 37°57' E 023°35'0 0.0
2016-May-01 09:32N 37°57' E 023°35'0 0.0
2016-May-01 08:32N 37°57' E 023°35'0 0.0
2016-May-01 07:32N 37°57' E 023°35'0 0.0
2016-May-01 06:32N 37°57' E 023°35'0 0.0
2016-May-01 05:29N 37°57' E 023°35'0 0.0
2016-May-01 04:32N 37°57' E 023°35'0 0.0
2016-May-01 03:29N 37°57' E 023°35'0 0.0
2016-May-01 02:29N 37°57' E 023°35'0 0.0
2016-May-01 01:32N 37°57' E 023°35'0 0.0
2016-May-01 00:32N 37°57' E 023°35'0 0.0
2016-Apr-30 23:29N 37°57' E 023°35'0 0.0
2016-Apr-30 22:32N 37°57' E 023°35'0 0.0
2016-Apr-30 21:32N 37°57' E 023°35'0 0.0
2016-Apr-30 20:29N 37°57' E 023°35'0 0.0
2016-Apr-30 19:29N 37°57' E 023°35'0 0.0
2016-Apr-30 18:32N 37°57' E 023°35'0 0.0
2016-Apr-30 17:32N 37°57' E 023°35'0 0.0
2016-Apr-30 16:29N 37°57' E 023°35'0 0.0
2016-Apr-30 15:29N 37°57' E 023°35'0 0.0
2016-Apr-30 14:26N 37°57' E 023°35'0 0.0
2016-Apr-30 13:32N 37°57' E 023°35'0 0.0
2016-Apr-30 12:32N 37°57' E 023°35'0 0.0
2016-Apr-30 11:29N 37°57' E 023°35'0 0.0
2016-Apr-30 10:29N 37°57' E 023°35'0 0.0
2016-Apr-30 09:29N 37°57' E 023°35'0 0.0
2016-Apr-30 08:32N 37°57' E 023°35'0 0.0
2016-Apr-30 07:32N 37°57' E 023°35'0 0.0
2016-Apr-30 06:33N 37°57' E 023°35'2 2.3
2016-Apr-30 05:34N 37°55' E 023°35'6 6.3
2016-Apr-30 04:34N 37°50' E 023°31'9 8.8
2016-Apr-30 03:33N 37°51' E 023°20'9 9.1
2016-Apr-30 02:33N 37°54' E 023°09'3 0.2
2016-Apr-29 07:33N 37°55' E 023°06'9 8.8
2016-Apr-29 06:33N 37°52' E 023°16'1010.1
2016-Apr-29 05:33N 37°50' E 023°29'8 8.3
2016-Apr-29 04:34N 37°57' E 023°35'1 0.7
2016-Apr-29 03:30N 37°57' E 023°35'0 0.0
2016-Apr-29 02:33N 37°57' E 023°35'0 0.0
2016-Apr-29 01:33N 37°57' E 023°35'0 0.0
2016-Apr-29 00:33N 37°57' E 023°35'0 0.0
2016-Apr-28 23:33N 37°57' E 023°35'0 0.0
2016-Apr-28 22:33N 37°57' E 023°35'0 0.0
2016-Apr-28 21:33N 37°57' E 023°35'0 0.0
2016-Apr-28 20:33N 37°57' E 023°35'0 0.0
2016-Apr-28 19:33N 37°57' E 023°35'0 0.0
2016-Apr-28 18:24N 37°57' E 023°35'0 0.0
2016-Apr-28 17:33N 37°57' E 023°35'0 0.0
2016-Apr-28 16:33N 37°57' E 023°35'0 0.0
2016-Apr-28 15:33N 37°57' E 023°35'0 0.0
2016-Apr-28 14:30N 37°57' E 023°35'0 0.0
2016-Apr-28 13:33N 37°57' E 023°35'0 0.0
2016-Apr-28 12:33N 37°57' E 023°35'0 0.0
2016-Apr-28 11:30N 37°57' E 023°35'0 0.0
2016-Apr-28 10:30N 37°57' E 023°35'0 0.0
2016-Apr-28 09:33N 37°57' E 023°35'0 0.0
2016-Apr-28 08:30N 37°57' E 023°35'0 0.0
2016-Apr-28 07:30N 37°57' E 023°35'0 0.0
2016-Apr-28 06:33N 37°57' E 023°35'0 0.0
2016-Apr-28 05:33N 37°57' E 023°35'0 0.0
2016-Apr-28 04:33N 37°57' E 023°35'0 0.0
2016-Apr-28 03:30N 37°57' E 023°35'0 0.0
2016-Apr-28 02:30N 37°57' E 023°35'0 0.0
2016-Apr-28 01:33N 37°57' E 023°35'0 0.0
2016-Apr-28 00:33N 37°57' E 023°35'0 0.0
2016-Apr-27 23:30N 37°57' E 023°35'0 0.0
2016-Apr-27 22:33N 37°57' E 023°35'0 0.0
2016-Apr-27 21:33N 37°57' E 023°35'0 0.0
2016-Apr-27 20:33N 37°57' E 023°35'0 0.0
2016-Apr-27 19:33N 37°57' E 023°35'0 0.0
2016-Apr-27 18:33N 37°57' E 023°35'0 0.0
2016-Apr-27 17:33N 37°57' E 023°35'0 0.0
2016-Apr-27 16:33N 37°57' E 023°35'0 0.0
2016-Apr-27 15:30N 37°57' E 023°35'0 0.0
2016-Apr-27 14:33N 37°57' E 023°35'0 0.0
2016-Apr-27 13:18N 37°57' E 023°35'0 0.0
2016-Apr-27 12:30N 37°57' E 023°35'0 0.0
2016-Apr-27 11:24N 37°57' E 023°35'0 0.0
2016-Apr-27 09:06N 37°57' E 023°35'0 0.0
2016-Apr-27 08:33N 37°57' E 023°35'0 0.0
2016-Apr-27 07:33N 37°57' E 023°35'0 0.0
2016-Apr-27 06:33N 37°57' E 023°35'0 0.0
2016-Apr-27 05:16N 37°57' E 023°35'2 3.1
2016-Apr-27 04:33N 37°55' E 023°35'2 1.7
2016-Apr-27 03:33N 37°54' E 023°34'0 0.0
2016-Apr-27 02:33N 37°54' E 023°34'0 0.0
2016-Apr-27 01:33N 37°54' E 023°34'0 0.0
2016-Apr-27 00:30N 37°54' E 023°34'0 0.0
2016-Apr-26 23:33N 37°54' E 023°34'0 0.0
2016-Apr-26 22:33N 37°54' E 023°34'0 0.0
2016-Apr-26 21:33N 37°54' E 023°34'0 0.0
2016-Apr-26 20:33N 37°54' E 023°34'0 0.0
2016-Apr-26 19:33N 37°54' E 023°34'0 0.0
2016-Apr-26 18:33N 37°54' E 023°34'0 0.0
2016-Apr-26 17:33N 37°54' E 023°34'1 0.9
2016-Apr-26 16:34N 37°53' E 023°34'7 6.9
2016-Apr-26 15:34N 37°50' E 023°27'9 9.1
2016-Apr-26 14:33N 37°52' E 023°15'8 0.4
2016-Apr-25 14:33N 37°55' E 023°05'1 0.9
2016-Apr-25 13:33N 37°55' E 023°07'0 0.0
2016-Apr-25 12:34N 37°55' E 023°07'0 0.1
2016-Apr-25 11:33N 37°55' E 023°06'0 0.0
2016-Apr-25 10:22N 37°55' E 023°06'0 0.0
2016-Apr-25 09:31N 37°55' E 023°06'0 0.0
2016-Apr-25 08:19N 37°55' E 023°06'0 0.0
2016-Apr-25 07:28N 37°55' E 023°06'0 0.1
2016-Apr-25 06:25N 37°55' E 023°07'0 0.0
2016-Apr-25 05:34N 37°55' E 023°07'0 0.0
2016-Apr-25 04:33N 37°55' E 023°07'0 0.0
2016-Apr-25 03:34N 37°55' E 023°07'0 0.0
2016-Apr-25 02:15N 37°55' E 023°07'0 0.0
2016-Apr-25 01:33N 37°55' E 023°07'0 0.0
2016-Apr-25 00:30N 37°55' E 023°07'0 0.0
2016-Apr-24 23:24N 37°55' E 023°07'0 0.1
2016-Apr-24 22:33N 37°55' E 023°07'0 0.0
2016-Apr-24 21:30N 37°55' E 023°07'0 0.0
2016-Apr-24 20:30N 37°55' E 023°07'0 0.0
2016-Apr-24 19:30N 37°55' E 023°07'2 2.2
2016-Apr-24 18:33N 37°54' E 023°09'9 9.4
2016-Apr-24 17:33N 37°51' E 023°20'9 9.4
2016-Apr-24 16:33N 37°50' E 023°32'8 7.9
2016-Apr-24 15:33N 37°47' E 023°41'10 9.6
2016-Apr-24 14:33N 37°40' E 023°50'10 9.2
2016-Apr-24 13:31N 37°37' E 024°01'10 8.5
2016-Apr-24 12:24N 37°40' E 024°12'8 9.4
2016-Apr-24 11:33N 37°45' E 024°20'119 9.1
2016-Apr-23 22:31N 39°44' E 024°28'2010.0
2016-Apr-23 20:29N 40°04' E 024°29'910.0
2016-Apr-23 19:33N 40°14' E 024°29'1010.0
2016-Apr-23 18:31N 40°24' E 024°27'10 9.6
2016-Apr-23 17:30N 40°34' E 024°26'9 9.5
2016-Apr-23 16:33N 40°42' E 024°25'10 9.8
2016-Apr-23 15:34N 40°52' E 024°28'6 6.2
2016-Apr-23 14:33N 40°57' E 024°33'0 0.0
2016-Apr-23 13:33N 40°57' E 024°33'0 0.0
2016-Apr-23 12:33N 40°57' E 024°33'0 0.0
2016-Apr-23 11:33N 40°57' E 024°33'0 0.0
2016-Apr-23 10:33N 40°57' E 024°33'0 0.0
2016-Apr-23 09:33N 40°57' E 024°33'0 0.0
2016-Apr-23 08:33N 40°57' E 024°33'0 0.0
2016-Apr-23 07:33N 40°57' E 024°33'0 0.0
2016-Apr-23 06:33N 40°57' E 024°33'0 0.0
2016-Apr-23 05:33N 40°57' E 024°33'0 0.0
2016-Apr-23 04:33N 40°57' E 024°33'0 0.0
2016-Apr-23 03:33N 40°57' E 024°33'0 0.0
2016-Apr-23 02:33N 40°57' E 024°33'0 0.0
2016-Apr-23 01:33N 40°57' E 024°33'0 0.0
2016-Apr-23 00:33N 40°57' E 024°33'0 0.0
2016-Apr-22 23:33N 40°57' E 024°33'0 0.0
2016-Apr-22 22:33N 40°57' E 024°33'0 0.0
2016-Apr-22 21:33N 40°57' E 024°33'0 0.0
2016-Apr-22 20:33N 40°57' E 024°33'0 0.0
2016-Apr-22 19:33N 40°57' E 024°33'0 0.0
2016-Apr-22 18:33N 40°57' E 024°33'0 0.0
2016-Apr-22 17:33N 40°57' E 024°33'0 0.0
2016-Apr-22 16:33N 40°57' E 024°33'0 0.0
2016-Apr-22 15:33N 40°57' E 024°33'0 0.0
2016-Apr-22 14:33N 40°57' E 024°33'2 2.0
2016-Apr-22 13:33N 40°57' E 024°30'7 6.6
2016-Apr-22 12:33N 40°50' E 024°28'9 9.2
2016-Apr-22 11:33N 40°41' E 024°25'10 9.6
2016-Apr-22 10:33N 40°32' E 024°26'10 9.3
2016-Apr-22 09:32N 40°22' E 024°27'9 8.9
2016-Apr-22 08:28N 40°13' E 024°29'  
Track history (hours):
 
Tides and Currents Weather Stations Pressure Air Temp Water Temp Dewpoint Dewpoint Depression Visibility Wind Speed Wind Dir Waves Ship Positions

Souda

Last reported at 2016-May-01 20:11 UTC. Time now 2016-May-01 21:13 UTC.
Position N 37°55' E 023°05'.

Length 88 m; draft 5 m.

Type: Tanker. MMSI: 241109000.

Date/timePositionNaut miles runAvg speedWind from/ knotsBaromVisibWave heightAir tempDewpointWater temp
2016-May-01 20:11N 37°55' E 023°05'1 1.9
2016-May-01 19:33N 37°54' E 023°06'1 1.2
2016-May-01 18:33N 37°54' E 023°07'10 9.7
2016-May-01 17:33N 37°52' E 023°19'1010.3
2016-May-01 16:33N 37°50' E 023°32'8 7.7
2016-May-01 15:32N 37°57' E 023°35'0 0.0
2016-May-01 14:32N 37°57' E 023°35'0 0.0
2016-May-01 13:32N 37°57' E 023°35'0 0.0
2016-May-01 12:32N 37°57' E 023°35'0 0.0
2016-May-01 11:32N 37°57' E 023°35'0 0.0
2016-May-01 10:32N 37°57' E 023°35'0 0.0
2016-May-01 09:32N 37°57' E 023°35'0 0.0
2016-May-01 08:32N 37°57' E 023°35'0 0.0
2016-May-01 07:32N 37°57' E 023°35'0 0.0
2016-May-01 06:32N 37°57' E 023°35'0 0.0
2016-May-01 05:29N 37°57' E 023°35'0 0.0
2016-May-01 04:32N 37°57' E 023°35'0 0.0
2016-May-01 03:29N 37°57' E 023°35'0 0.0
2016-May-01 02:29N 37°57' E 023°35'0 0.0
2016-May-01 01:32N 37°57' E 023°35'0 0.0
2016-May-01 00:32N 37°57' E 023°35'0 0.0
2016-Apr-30 23:29N 37°57' E 023°35'0 0.0
2016-Apr-30 22:32N 37°57' E 023°35'0 0.0
2016-Apr-30 21:32N 37°57' E 023°35'0 0.0
2016-Apr-30 20:29N 37°57' E 023°35'0 0.0
2016-Apr-30 19:29N 37°57' E 023°35'0 0.0
2016-Apr-30 18:32N 37°57' E 023°35'0 0.0
2016-Apr-30 17:32N 37°57' E 023°35'0 0.0
2016-Apr-30 16:29N 37°57' E 023°35'0 0.0
2016-Apr-30 15:29N 37°57' E 023°35'0 0.0
2016-Apr-30 14:26N 37°57' E 023°35'0 0.0
2016-Apr-30 13:32N 37°57' E 023°35'0 0.0
2016-Apr-30 12:32N 37°57' E 023°35'0 0.0
2016-Apr-30 11:29N 37°57' E 023°35'0 0.0
2016-Apr-30 10:29N 37°57' E 023°35'0 0.0
2016-Apr-30 09:29N 37°57' E 023°35'0 0.0
2016-Apr-30 08:32N 37°57' E 023°35'0 0.0
2016-Apr-30 07:32N 37°57' E 023°35'0 0.0
2016-Apr-30 06:33N 37°57' E 023°35'2 2.3
2016-Apr-30 05:34N 37°55' E 023°35'6 6.3
2016-Apr-30 04:34N 37°50' E 023°31'9 8.8
2016-Apr-30 03:33N 37°51' E 023°20'9 9.1
2016-Apr-30 02:33N 37°54' E 023°09'3 0.2
2016-Apr-29 07:33N 37°55' E 023°06'9 8.8
2016-Apr-29 06:33N 37°52' E 023°16'1010.1
2016-Apr-29 05:33N 37°50' E 023°29'8 8.3
2016-Apr-29 04:34N 37°57' E 023°35'1 0.7
2016-Apr-29 03:30N 37°57' E 023°35'0 0.0
2016-Apr-29 02:33N 37°57' E 023°35'0 0.0
2016-Apr-29 01:33N 37°57' E 023°35'0 0.0
2016-Apr-29 00:33N 37°57' E 023°35'0 0.0
2016-Apr-28 23:33N 37°57' E 023°35'0 0.0
2016-Apr-28 22:33N 37°57' E 023°35'0 0.0
2016-Apr-28 21:33N 37°57' E 023°35'0 0.0
2016-Apr-28 20:33N 37°57' E 023°35'0 0.0
2016-Apr-28 19:33N 37°57' E 023°35'0 0.0
2016-Apr-28 18:24N 37°57' E 023°35'0 0.0
2016-Apr-28 17:33N 37°57' E 023°35'0 0.0
2016-Apr-28 16:33N 37°57' E 023°35'0 0.0
2016-Apr-28 15:33N 37°57' E 023°35'0 0.0
2016-Apr-28 14:30N 37°57' E 023°35'0 0.0
2016-Apr-28 13:33N 37°57' E 023°35'0 0.0
2016-Apr-28 12:33N 37°57' E 023°35'0 0.0
2016-Apr-28 11:30N 37°57' E 023°35'0 0.0
2016-Apr-28 10:30N 37°57' E 023°35'0 0.0
2016-Apr-28 09:33N 37°57' E 023°35'0 0.0
2016-Apr-28 08:30N 37°57' E 023°35'0 0.0
2016-Apr-28 07:30N 37°57' E 023°35'0 0.0
2016-Apr-28 06:33N 37°57' E 023°35'0 0.0
2016-Apr-28 05:33N 37°57' E 023°35'0 0.0
2016-Apr-28 04:33N 37°57' E 023°35'0 0.0
2016-Apr-28 03:30N 37°57' E 023°35'0 0.0
2016-Apr-28 02:30N 37°57' E 023°35'0 0.0
2016-Apr-28 01:33N 37°57' E 023°35'0 0.0
2016-Apr-28 00:33N 37°57' E 023°35'0 0.0
2016-Apr-27 23:30N 37°57' E 023°35'0 0.0
2016-Apr-27 22:33N 37°57' E 023°35'0 0.0
2016-Apr-27 21:33N 37°57' E 023°35'0 0.0
2016-Apr-27 20:33N 37°57' E 023°35'0 0.0
2016-Apr-27 19:33N 37°57' E 023°35'0 0.0
2016-Apr-27 18:33N 37°57' E 023°35'0 0.0
2016-Apr-27 17:33N 37°57' E 023°35'0 0.0
2016-Apr-27 16:33N 37°57' E 023°35'0 0.0
2016-Apr-27 15:30N 37°57' E 023°35'0 0.0
2016-Apr-27 14:33N 37°57' E 023°35'0 0.0
2016-Apr-27 13:18N 37°57' E 023°35'0 0.0
2016-Apr-27 12:30N 37°57' E 023°35'0 0.0
2016-Apr-27 11:24N 37°57' E 023°35'0 0.0
2016-Apr-27 09:06N 37°57' E 023°35'0 0.0
2016-Apr-27 08:33N 37°57' E 023°35'0 0.0
2016-Apr-27 07:33N 37°57' E 023°35'0 0.0
2016-Apr-27 06:33N 37°57' E 023°35'0 0.0
2016-Apr-27 05:16N 37°57' E 023°35'2 3.1
2016-Apr-27 04:33N 37°55' E 023°35'2 1.7
2016-Apr-27 03:33N 37°54' E 023°34'0 0.0
2016-Apr-27 02:33N 37°54' E 023°34'0 0.0
2016-Apr-27 01:33N 37°54' E 023°34'0 0.0
2016-Apr-27 00:30N 37°54' E 023°34'0 0.0
2016-Apr-26 23:33N 37°54' E 023°34'0 0.0
2016-Apr-26 22:33N 37°54' E 023°34'0 0.0
2016-Apr-26 21:33N 37°54' E 023°34'0 0.0
2016-Apr-26 20:33N 37°54' E 023°34'0 0.0
2016-Apr-26 19:33N 37°54' E 023°34'0 0.0
2016-Apr-26 18:33N 37°54' E 023°34'0 0.0
2016-Apr-26 17:33N 37°54' E 023°34'1 0.9
2016-Apr-26 16:34N 37°53' E 023°34'7 6.9
2016-Apr-26 15:34N 37°50' E 023°27'9 9.1
2016-Apr-26 14:33N 37°52' E 023°15'8 0.4
2016-Apr-25 14:33N 37°55' E 023°05'1 0.9
2016-Apr-25 13:33N 37°55' E 023°07'0 0.0
2016-Apr-25 12:34N 37°55' E 023°07'0 0.1
2016-Apr-25 11:33N 37°55' E 023°06'0 0.0
2016-Apr-25 10:22N 37°55' E 023°06'0 0.0
2016-Apr-25 09:31N 37°55' E 023°06'0 0.0
2016-Apr-25 08:19N 37°55' E 023°06'0 0.0
2016-Apr-25 07:28N 37°55' E 023°06'0 0.1
2016-Apr-25 06:25N 37°55' E 023°07'0 0.0
2016-Apr-25 05:34N 37°55' E 023°07'0 0.0
2016-Apr-25 04:33N 37°55' E 023°07'0 0.0
2016-Apr-25 03:34N 37°55' E 023°07'0 0.0
2016-Apr-25 02:15N 37°55' E 023°07'0 0.0
2016-Apr-25 01:33N 37°55' E 023°07'0 0.0
2016-Apr-25 00:30N 37°55' E 023°07'0 0.0
2016-Apr-24 23:24N 37°55' E 023°07'0 0.1
2016-Apr-24 22:33N 37°55' E 023°07'0 0.0
2016-Apr-24 21:30N 37°55' E 023°07'0 0.0
2016-Apr-24 20:30N 37°55' E 023°07'0 0.0
2016-Apr-24 19:30N 37°55' E 023°07'2 2.2
2016-Apr-24 18:33N 37°54' E 023°09'9 9.4
2016-Apr-24 17:33N 37°51' E 023°20'9 9.4
2016-Apr-24 16:33N 37°50' E 023°32'8 7.9
2016-Apr-24 15:33N 37°47' E 023°41'10 9.6
2016-Apr-24 14:33N 37°40' E 023°50'10 9.2
2016-Apr-24 13:31N 37°37' E 024°01'10 8.5
2016-Apr-24 12:24N 37°40' E 024°12'8 9.4
2016-Apr-24 11:33N 37°45' E 024°20'119 9.1
2016-Apr-23 22:31N 39°44' E 024°28'2010.0
2016-Apr-23 20:29N 40°04' E 024°29'910.0
2016-Apr-23 19:33N 40°14' E 024°29'1010.0
2016-Apr-23 18:31N 40°24' E 024°27'10 9.6
2016-Apr-23 17:30N 40°34' E 024°26'9 9.5
2016-Apr-23 16:33N 40°42' E 024°25'10 9.8
2016-Apr-23 15:34N 40°52' E 024°28'6 6.2
2016-Apr-23 14:33N 40°57' E 024°33'0 0.0
2016-Apr-23 13:33N 40°57' E 024°33'0 0.0
2016-Apr-23 12:33N 40°57' E 024°33'0 0.0
2016-Apr-23 11:33N 40°57' E 024°33'0 0.0
2016-Apr-23 10:33N 40°57' E 024°33'0 0.0
2016-Apr-23 09:33N 40°57' E 024°33'0 0.0
2016-Apr-23 08:33N 40°57' E 024°33'0 0.0
2016-Apr-23 07:33N 40°57' E 024°33'0 0.0
2016-Apr-23 06:33N 40°57' E 024°33'0 0.0
2016-Apr-23 05:33N 40°57' E 024°33'0 0.0
2016-Apr-23 04:33N 40°57' E 024°33'0 0.0
2016-Apr-23 03:33N 40°57' E 024°33'0 0.0
2016-Apr-23 02:33N 40°57' E 024°33'0 0.0
2016-Apr-23 01:33N 40°57' E 024°33'0 0.0
2016-Apr-23 00:33N 40°57' E 024°33'0 0.0
2016-Apr-22 23:33N 40°57' E 024°33'0 0.0
2016-Apr-22 22:33N 40°57' E 024°33'0 0.0
2016-Apr-22 21:33N 40°57' E 024°33'0 0.0
2016-Apr-22 20:33N 40°57' E 024°33'0 0.0
2016-Apr-22 19:33N 40°57' E 024°33'0 0.0
2016-Apr-22 18:33N 40°57' E 024°33'0 0.0
2016-Apr-22 17:33N 40°57' E 024°33'0 0.0
2016-Apr-22 16:33N 40°57' E 024°33'0 0.0
2016-Apr-22 15:33N 40°57' E 024°33'0 0.0
2016-Apr-22 14:33N 40°57' E 024°33'2 2.0
2016-Apr-22 13:33N 40°57' E 024°30'7 6.6
2016-Apr-22 12:33N 40°50' E 024°28'9 9.2
2016-Apr-22 11:33N 40°41' E 024°25'10 9.6
2016-Apr-22 10:33N 40°32' E 024°26'10 9.3
2016-Apr-22 09:32N 40°22' E 024°27'9 8.9
2016-Apr-22 08:28N 40°13' E 024°29'  

Dump ship's entire track history